This is the latest recevied weather packets stored in our database for station/object VE6HFD-WX. If no packets are shown the sender has not sent any weather packets the latest 10 day(s).
| Time | Temp. | Humidity | Pressure | Rain* | Wind** | Luminosity | Snow |
|---|---|---|---|---|---|---|---|
| 1778052067 | -1.67° C | 65% | 1019.4 hPa | 0 mm | - | - | - |
| 1778051767 | -1.67° C | 64% | 1019.4 hPa | 0 mm | - | - | - |
| 1778051437 | -1.11° C | 64% | 1019.5 hPa | 0 mm | - | - | - |
| 1778051137 | -1.11° C | 65% | 1019.5 hPa | 0 mm | - | - | - |
| 1778050807 | -1.11° C | 66% | 1019.6 hPa | 0 mm | - | - | - |
| 1778050507 | -1.11° C | 66% | 1019.6 hPa | 0 mm | - | - | - |
| 1778050177 | -1.11° C | 65% | 1019.7 hPa | 0 mm | - | - | - |
| 1778049877 | -0.56° C | 63% | 1019.7 hPa | 0 mm | - | - | - |
| 1778049547 | -0.56° C | 62% | 1019.8 hPa | 0 mm | - | - | - |
| 1778049247 | -1.11° C | 62% | 1019.8 hPa | 0 mm | - | - | - |
| 1778048917 | -1.11° C | 62% | 1019.8 hPa | 0 mm | - | - | - |
| 1778048617 | -0.56° C | 63% | 1019.8 hPa | 0 mm | - | - | - |
| 1778048317 | -0.56° C | 63% | 1019.8 hPa | 0 mm | - | - | - |
| 1778047987 | -1.11° C | 64% | 1019.7 hPa | 0 mm | - | - | - |
| 1778047687 | -1.11° C | 62% | 1019.7 hPa | 0 mm | - | - | - |
| 1778047357 | -1.11° C | 64% | 1019.7 hPa | 0 mm | - | - | - |
| 1778047027 | -1.11° C | 63% | 1019.7 hPa | 0 mm | - | - | - |
| 1778046697 | -1.11° C | 63% | 1019.7 hPa | 0 mm | - | - | - |
| 1778046368 | -1.11° C | 61% | 1019.7 hPa | 0 mm | - | - | - |
| 1778046037 | 0° C | 57% | 1019.7 hPa | 0 mm | - | - | - |
| 1778045737 | 1.11° C | 55% | 1019.8 hPa | 0 mm | - | - | - |
| 1778045437 | 1.67° C | 53% | 1019.9 hPa | 0 mm | - | - | - |
| 1778045107 | 1.67° C | 54% | 1020 hPa | 0 mm | - | - | - |
| 1778044777 | 1.11° C | 56% | 1020 hPa | 0 mm | - | - | - |
| 1778044447 | 0.56° C | 57% | 1020.1 hPa | 0 mm | - | - | - |
* Rain latest hour (hover to see other rain measurements)
** Current wind speed in m/s (hover to see current wind gust speed)